WetterOnline ( https://www.wetteronline.de )

Wetter aktuell Vogelsberg

Aktuelles Wetter: Hoherodskopf/Vogelsberg (743m)

6-stündlich | Neueste Meldungen
Ortszeit Temperatur Wetter
Mi, 22.09. 8:00 8.6° C bedeckt
Mi, 22.09. 2:00 8.0° C wolkenlos
Di, 21.09. 20:00 9.3° C wolkenlos
Di, 21.09. 14:00 10.3° C wolkenlos
Di, 21.09. 8:00 6.2° C wolkenlos
Di, 21.09. 2:00 5.4° C wolkenlos
Mo, 20.09. 20:00 7.5° C fast wolkenlos
Mo, 20.09. 14:00 8.7° C wolkenlos
Ortszeit Temperatur Wetter
Mi, 22.09. 8:00 8.6° C bedeckt
Mi, 22.09. 7:50 8.6° C bedeckt
Mi, 22.09. 7:40 8.6° C bewölkt
Mi, 22.09. 7:30 8.3° C leicht bewölkt
Mi, 22.09. 7:20 8.3° C leicht bewölkt
Mi, 22.09. 7:10 7.9° C wolkenlos
Mi, 22.09. 7:00 7.9° C wolkenlos
Mi, 22.09. 6:30 7.9° C wolkenlos
Mi, 22.09. 6:00 8.4° C wolkig
Mi, 22.09. 5:30 8.5° C bewölkt
Mi, 22.09. 5:00 8.5° C wolkig
Ortszeit Relative Feuchte Sichtweite
Mi, 22.09. 8:00 90% 16 km
Mi, 22.09. 2:00 82% 40 km
Di, 21.09. 20:00 74% 45 km
Di, 21.09. 14:00 64% 65 km
Di, 21.09. 8:00 82% 45 km
Di, 21.09. 2:00 82% 45 km
Mo, 20.09. 20:00 83% 30 km
Mo, 20.09. 14:00 78% 45 km
Ortszeit Relative Feuchte Sichtweite
Mi, 22.09. 8:00 90% 16 km
Mi, 22.09. 7:50 90% -
Mi, 22.09. 7:40 90% -
Mi, 22.09. 7:30 91% 17 km
Mi, 22.09. 7:20 91% -
Mi, 22.09. 7:10 90% -
Mi, 22.09. 7:00 93% 13 km
Mi, 22.09. 6:30 92% 14 km
Mi, 22.09. 6:00 83% 30 km
Mi, 22.09. 5:30 80% 35 km
Mi, 22.09. 5:00 79% 40 km
Ortszeit Niederschlagsmenge Niederschlagsart
Mi, 22.09. 8:00 0.0 l/m2 in 12 Std. -
Mi, 22.09. 2:00 0.0 l/m2 in 6 Std. -
Di, 21.09. 20:00 0.0 l/m2 in 12 Std. -
Di, 21.09. 14:00 0.0 l/m2 in 6 Std. -
Di, 21.09. 8:00 0.0 l/m2 in 12 Std. -
Di, 21.09. 2:00 0.0 l/m2 in 6 Std. -
Mo, 20.09. 20:00 0.0 l/m2 in 12 Std. -
Mo, 20.09. 14:00 0.0 l/m2 in 6 Std. -
Ortszeit Niederschlagsmenge Niederschlagsart
Mi, 22.09. 8:00 0.0 l/m2 in 1 Std. -
Mi, 22.09. 7:50 keine Meldung -
Mi, 22.09. 7:40 keine Meldung -
Mi, 22.09. 7:30 0.0 l/m2 in 1 Std. -
Mi, 22.09. 7:20 keine Meldung -
Mi, 22.09. 7:10 keine Meldung -
Mi, 22.09. 7:00 0.0 l/m2 in 1 Std. -
Mi, 22.09. 6:30 0.0 l/m2 in 1 Std. -
Mi, 22.09. 6:00 0.0 l/m2 in 1 Std. -
Mi, 22.09. 5:30 0.0 l/m2 in 1 Std. -
Mi, 22.09. 5:00 0.0 l/m2 in 1 Std. -
Ortszeit Stärke Spitze Richtung
km/h Bft. km/h Grad Sektor
Mi, 22.09. 8:00 13 3 26 340° N
Mi, 22.09. 2:00 14 3 18 340° N
Di, 21.09. 20:00 7 2 22 10° N
Di, 21.09. 14:00 7 2 22 340° N
Di, 21.09. 8:00 7 2 22 50° NO
Di, 21.09. 2:00 7 2 22 80° O
Mo, 20.09. 20:00 11 2 25 60° NO
Mo, 20.09. 14:00 9 2 26 90° O
Ortszeit Stärke Spitze Richtung
km/h Bft. km/h Grad Sektor
Mi, 22.09. 8:00 13 3 19 340° N
Mi, 22.09. 7:50 13 3 - 340° N
Mi, 22.09. 7:40 13 3 - 340° N
Mi, 22.09. 7:30 11 2 14 350° N
Mi, 22.09. 7:20 11 2 - 350° N
Mi, 22.09. 7:10 11 2 - 340° N
Mi, 22.09. 7:00 11 2 20 340° N
Mi, 22.09. 6:30 11 2 22 340° N
Mi, 22.09. 6:00 11 2 17 340° N
Mi, 22.09. 5:30 11 2 14 340° N
Mi, 22.09. 5:00 13 3 26 340° N
Ortszeit Untergrenze Bedeckung Gattung
total tief tief mittel hoch
Mi, 22.09. 8:00 180 m 8/8 8/8 - - -
Mi, 22.09. 2:00 - 0/8 0/8 - - -
Di, 21.09. 20:00 - 0/8 0/8 - - -
Di, 21.09. 14:00 - 0/8 0/8 - - -
Di, 21.09. 8:00 - 0/8 0/8 - - -
Di, 21.09. 2:00 - 0/8 0/8 - - -
Mo, 20.09. 20:00 330 m 1/8 1/8 - - -
Mo, 20.09. 14:00 - 0/8 0/8 - - -
Ortszeit Bedeckungsgrad in Achtel und Wolkenuntergrenze
Mi, 22.09. 8:00 8(180m)
Mi, 22.09. 7:50 8(180m)
Mi, 22.09. 7:40 7(180m)
Mi, 22.09. 7:30 2(240m)
Mi, 22.09. 7:20 2(240m)
Mi, 22.09. 7:10 keine Wolken
Mi, 22.09. 7:00 keine Wolken
Mi, 22.09. 6:30 keine Wolken
Mi, 22.09. 6:00 5(270m) 6(390m)
Mi, 22.09. 5:30 7(300m)
Mi, 22.09. 5:00 5(300m)
Ortszeit Luftdruck NN (hPa) Tendenz (hPa in 3 Std.)
Mi, 22.09. 8:00 1030 + 0,5
Mi, 22.09. 2:00 1031 - 0,4
Di, 21.09. 20:00 1030 + 0,6
Di, 21.09. 14:00 1030 + 0,7
Di, 21.09. 8:00 1028 + 1,3
Di, 21.09. 2:00 1027 + 0,7
Mo, 20.09. 20:00 1024 + 1,3
Mo, 20.09. 14:00 1021 + 0,7
Ortszeit Luftdruck NN (hPa) Tendenz (hPa in 3 Std.)
Mi, 22.09. 8:00 1030 + 0,5
Mi, 22.09. 7:50 1030 keine Meldung
Mi, 22.09. 7:40 1030 keine Meldung
Mi, 22.09. 7:30 1030 0,0
Mi, 22.09. 7:20 1030 keine Meldung
Mi, 22.09. 7:10 1030 keine Meldung
Mi, 22.09. 7:00 1030 - 0,1
Mi, 22.09. 6:30 1030 - 0,1
Mi, 22.09. 6:00 1030 - 0,2
Mi, 22.09. 5:30 1030 - 0,4
Mi, 22.09. 5:00 1030 - 0,7
Ortszeit Schneehöhe (cm)
Mi, 22.09. 8:00 0
Mi, 22.09. 2:00 0
Di, 21.09. 20:00 0
Di, 21.09. 14:00 0
Di, 21.09. 8:00 0
Di, 21.09. 2:00 0
Mo, 20.09. 20:00 0
Mo, 20.09. 14:00 0
Ortszeit Schneehöhe (cm)
Mi, 22.09. 8:00 0
Mi, 22.09. 7:50 0
Mi, 22.09. 7:40 0
Mi, 22.09. 7:30 0
Mi, 22.09. 7:20 0
Mi, 22.09. 7:10 0
Mi, 22.09. 7:00 0
Mi, 22.09. 6:30 0
Mi, 22.09. 6:00 0
Mi, 22.09. 5:30 0
Mi, 22.09. 5:00 0
Link zu dieser Seite / Seite empfehlen

Das Wetter in ...